Terminal Aerodrome Forecast
Issued by NWS Twin Cities, MN

Home | Current Version | Previous Version | Graphics & Text | Print | Product List | Glossary On
Versions: 1 2 3 4 5 6 7 8 9 10 11 12 13 14 15 16 17 18 19
000
FTUS43 KMPX 121700
TAFSTC
TAF
KSTC 121738Z 1218/1318 33004KT P6SM FEW040 BKN100
     FM122000 28006KT P6SM -SHRA SCT060 BKN100
     FM122300 28007KT P6SM FEW100 BKN200
     FM130300 29004KT P6SM SKC
     FM131600 31010G19KT P6SM SKC=

USA.gov is the U.S. government's official web portal to all federal, state and local government web resources and services.